createdAt,value
2023-05-14T00:01:14.873Z,10.46
2023-05-14T00:03:59.931Z,10.43
2023-05-14T00:06:44.993Z,10.32
2023-05-14T00:09:29.859Z,10.39
2023-05-14T00:12:14.881Z,10.45
2023-05-14T00:14:59.805Z,10.47
2023-05-14T00:17:44.862Z,10.50
2023-05-14T00:20:30.025Z,10.56
2023-05-14T00:23:14.975Z,10.60
2023-05-14T00:25:59.971Z,10.55
2023-05-14T00:28:44.987Z,10.53
2023-05-14T00:31:30.011Z,10.51
2023-05-14T00:34:15.014Z,10.53
2023-05-14T00:37:00.056Z,10.57
2023-05-14T00:39:45.200Z,10.62
2023-05-14T00:42:30.125Z,10.61
2023-05-14T00:45:15.288Z,10.55
2023-05-14T00:48:00.333Z,10.52
2023-05-14T00:50:45.302Z,10.53
2023-05-14T00:53:30.260Z,10.56
2023-05-14T00:56:15.493Z,10.60
2023-05-14T00:59:00.469Z,10.59
2023-05-14T01:01:45.383Z,10.61
2023-05-14T01:04:30.359Z,10.66
2023-05-14T01:07:15.264Z,10.69
2023-05-14T01:10:00.348Z,10.71
2023-05-14T01:12:45.311Z,10.73
2023-05-14T01:15:30.292Z,10.76
2023-05-14T01:18:15.206Z,10.77
2023-05-14T01:21:00.177Z,10.81
2023-05-14T01:23:45.216Z,10.82
2023-05-14T01:26:30.166Z,10.83
2023-05-14T01:29:15.175Z,10.84
2023-05-14T01:32:00.229Z,10.81
2023-05-14T01:34:45.148Z,10.83
2023-05-14T01:37:30.006Z,10.83
2023-05-14T01:40:15.210Z,10.83
2023-05-14T01:43:00.515Z,10.84
2023-05-14T01:45:45.585Z,10.84
2023-05-14T01:48:30.448Z,10.84
2023-05-14T01:51:15.408Z,10.84
2023-05-14T01:54:00.604Z,10.84
2023-05-14T01:56:45.605Z,10.80
2023-05-14T01:59:30.625Z,10.80
2023-05-14T02:02:15.635Z,10.83
2023-05-14T02:05:00.773Z,10.82
2023-05-14T02:07:45.818Z,10.82
2023-05-14T02:10:30.779Z,10.81
2023-05-14T02:13:15.841Z,10.81
2023-05-14T02:16:00.807Z,10.84
2023-05-14T02:18:45.859Z,10.79
2023-05-14T02:21:30.752Z,10.81
2023-05-14T02:24:15.889Z,10.80
2023-05-14T02:27:00.851Z,10.66
2023-05-14T02:29:46.036Z,10.54
2023-05-14T02:32:31.142Z,10.48
2023-05-14T02:35:16.046Z,10.33
2023-05-14T02:38:01.051Z,10.28
2023-05-14T02:40:45.975Z,10.31
2023-05-14T02:43:31.111Z,10.34
2023-05-14T02:46:16.149Z,10.40
2023-05-14T02:49:01.080Z,10.46
2023-05-14T02:51:46.117Z,10.47
2023-05-14T02:54:31.157Z,10.56
2023-05-14T02:57:16.129Z,10.59
2023-05-14T03:00:00.983Z,10.66
2023-05-14T03:02:46.633Z,10.70
2023-05-14T03:05:31.944Z,10.72
2023-05-14T03:08:16.909Z,10.73
2023-05-14T03:11:01.992Z,10.72
2023-05-14T03:13:46.860Z,10.73
2023-05-14T03:16:32.121Z,10.71
2023-05-14T03:19:17.236Z,10.68
2023-05-14T03:22:02.114Z,10.66
2023-05-14T03:24:47.204Z,10.62
2023-05-14T03:27:32.194Z,10.59
2023-05-14T03:30:17.196Z,10.61
2023-05-14T03:33:02.076Z,10.64
2023-05-14T03:35:47.136Z,10.70
2023-05-14T03:38:32.185Z,10.72
2023-05-14T03:41:17.235Z,10.71
2023-05-14T03:44:02.233Z,10.67
2023-05-14T03:46:47.251Z,10.66
2023-05-14T03:49:32.175Z,10.66
2023-05-14T03:52:17.349Z,10.63
2023-05-14T03:55:02.369Z,10.67
2023-05-14T03:57:47.401Z,10.64
2023-05-14T04:00:32.473Z,10.66
2023-05-14T04:03:17.499Z,10.67
2023-05-14T04:06:02.296Z,10.65
2023-05-14T04:08:47.193Z,10.64
2023-05-14T04:11:32.400Z,10.64
2023-05-14T04:14:17.309Z,10.59
2023-05-14T04:17:02.481Z,10.56
2023-05-14T04:19:47.497Z,10.56
2023-05-14T04:22:32.488Z,10.51
2023-05-14T04:25:17.445Z,10.52
2023-05-14T04:28:02.411Z,10.51
2023-05-14T04:30:47.615Z,10.47
2023-05-14T04:33:32.599Z,10.47
2023-05-14T04:36:17.671Z,10.45
2023-05-14T04:39:02.707Z,10.45
2023-05-14T04:41:47.644Z,10.51
2023-05-14T04:44:32.658Z,10.51
2023-05-14T04:47:17.649Z,10.55
2023-05-14T04:50:02.887Z,10.54
2023-05-14T04:52:47.784Z,10.62
2023-05-14T04:55:32.842Z,10.65
2023-05-14T04:58:17.769Z,10.66
2023-05-14T05:01:02.969Z,10.61
2023-05-14T05:03:48.047Z,10.58
2023-05-14T05:06:33.018Z,10.53
2023-05-14T05:09:17.911Z,10.56
2023-05-14T05:12:02.770Z,10.55
2023-05-14T05:14:47.807Z,10.53
2023-05-14T05:17:32.845Z,10.48
2023-05-14T05:20:17.943Z,10.51
2023-05-14T05:23:02.935Z,10.58
2023-05-14T05:25:47.832Z,10.61
2023-05-14T05:28:32.920Z,10.69
2023-05-14T05:31:19.814Z,10.69
2023-05-14T05:34:05.120Z,10.51
2023-05-14T05:36:50.087Z,10.44
2023-05-14T05:39:35.408Z,10.50
2023-05-14T05:42:20.156Z,10.61
2023-05-14T05:45:05.145Z,10.71
2023-05-14T05:47:50.292Z,10.79
2023-05-14T05:50:35.179Z,10.77
2023-05-14T05:53:20.142Z,10.86
2023-05-14T05:56:05.309Z,10.95
2023-05-14T05:58:50.075Z,10.99
2023-05-14T06:01:35.272Z,11.09
2023-05-14T06:04:20.241Z,11.16
2023-05-14T06:07:05.296Z,11.23
2023-05-14T06:09:50.287Z,11.32
2023-05-14T06:12:35.616Z,11.29
2023-05-14T06:15:20.814Z,11.19
2023-05-14T06:18:06.022Z,11.10
2023-05-14T06:20:50.944Z,11.15
2023-05-14T06:23:35.976Z,11.22
2023-05-14T06:26:20.979Z,11.30
2023-05-14T06:29:05.862Z,11.47
2023-05-14T06:31:50.636Z,11.68
2023-05-14T06:34:35.644Z,11.85
2023-05-14T06:37:20.693Z,11.97
2023-05-14T06:40:05.688Z,12.05
2023-05-14T06:42:50.710Z,12.23
2023-05-14T06:45:35.744Z,12.42
2023-05-14T06:48:20.859Z,12.61
2023-05-14T06:51:05.567Z,12.74
2023-05-14T06:53:50.541Z,12.67
2023-05-14T06:56:35.618Z,12.44
2023-05-14T06:59:20.469Z,12.18
2023-05-14T07:02:05.589Z,12.13
2023-05-14T07:04:50.557Z,12.12
2023-05-14T07:07:35.629Z,11.96
2023-05-14T07:10:20.647Z,11.90
2023-05-14T07:13:05.725Z,12.00
2023-05-14T07:15:50.668Z,12.13
2023-05-14T07:18:35.716Z,12.30
2023-05-14T07:21:20.895Z,12.16
2023-05-14T07:24:05.903Z,12.13
2023-05-14T07:26:51.034Z,12.29
2023-05-14T07:29:36.053Z,12.45
2023-05-14T07:32:21.232Z,12.63
2023-05-14T07:35:06.154Z,12.61
2023-05-14T07:37:51.043Z,12.56
2023-05-14T07:40:36.306Z,12.35
2023-05-14T07:43:21.349Z,12.08
2023-05-14T07:46:06.437Z,11.49
2023-05-14T07:48:51.400Z,11.34
2023-05-14T07:51:36.509Z,11.01
2023-05-14T07:54:21.630Z,10.95
2023-05-14T07:57:06.600Z,10.85
2023-05-14T07:59:51.633Z,10.66
2023-05-14T08:02:36.616Z,10.51
2023-05-14T08:05:21.544Z,10.43
2023-05-14T08:08:06.478Z,10.32
2023-05-14T08:10:51.819Z,10.39
2023-05-14T08:13:36.729Z,10.52
2023-05-14T08:16:21.789Z,10.74
2023-05-14T08:19:06.712Z,10.84
2023-05-14T08:21:51.614Z,11.25
2023-05-14T08:24:36.628Z,11.48
2023-05-14T08:27:21.645Z,11.69
2023-05-14T08:30:06.564Z,11.72
2023-05-14T08:32:51.470Z,11.92
2023-05-14T08:35:36.534Z,12.11
2023-05-14T08:38:21.309Z,12.36
2023-05-14T08:41:06.352Z,12.69
2023-05-14T08:43:51.402Z,13.03
2023-05-14T08:46:36.483Z,13.39
2023-05-14T08:49:21.552Z,13.82
2023-05-14T08:52:06.402Z,14.05
2023-05-14T08:54:51.541Z,14.16
2023-05-14T08:57:36.439Z,13.97
2023-05-14T09:00:21.687Z,13.95
2023-05-14T09:03:06.550Z,14.11
2023-05-14T09:05:51.462Z,14.86
2023-05-14T09:08:36.596Z,15.53
2023-05-14T09:11:21.488Z,15.56
2023-05-14T09:14:06.540Z,14.97
2023-05-14T09:16:51.732Z,14.49
2023-05-14T09:19:36.552Z,14.55
2023-05-14T09:22:21.415Z,14.13
2023-05-14T09:25:06.543Z,14.30
2023-05-14T09:27:51.477Z,14.10
2023-05-14T09:30:36.331Z,14.24
2023-05-14T09:33:21.446Z,14.00
2023-05-14T09:36:06.386Z,13.74
2023-05-14T09:38:51.500Z,13.70
2023-05-14T09:41:36.515Z,13.69
2023-05-14T09:44:21.505Z,13.50
2023-05-14T09:47:06.444Z,13.41
2023-05-14T09:49:51.406Z,13.46
2023-05-14T09:52:37.399Z,13.54
2023-05-14T09:55:22.445Z,13.55
2023-05-14T09:58:07.447Z,13.40
2023-05-14T10:00:52.411Z,13.96
2023-05-14T10:03:37.339Z,14.29
2023-05-14T10:06:22.193Z,14.60
2023-05-14T10:09:07.390Z,14.49
2023-05-14T10:11:52.452Z,14.57
2023-05-14T10:14:37.458Z,14.20
2023-05-14T10:17:22.429Z,14.20
2023-05-14T10:20:07.407Z,13.91
2023-05-14T10:22:52.567Z,13.98
2023-05-14T10:25:37.579Z,14.02
2023-05-14T10:28:22.578Z,14.23
2023-05-14T10:31:07.654Z,14.48
2023-05-14T10:33:52.532Z,14.79
2023-05-14T10:36:37.577Z,14.67
2023-05-14T10:39:22.548Z,14.45
2023-05-14T10:42:07.571Z,14.40
2023-05-14T10:44:52.430Z,14.64
2023-05-14T10:47:37.616Z,14.68
2023-05-14T10:50:22.728Z,14.42
2023-05-14T10:53:08.154Z,14.73
2023-05-14T10:55:53.029Z,14.81
2023-05-14T10:58:37.954Z,14.76
2023-05-14T11:01:23.054Z,14.50
2023-05-14T11:04:08.167Z,14.43
2023-05-14T11:06:53.027Z,14.36
2023-05-14T11:09:37.982Z,14.23
2023-05-14T11:12:23.118Z,14.49
2023-05-14T11:15:08.072Z,14.79
2023-05-14T11:17:53.079Z,14.84
2023-05-14T11:20:37.992Z,14.84
2023-05-14T11:23:23.009Z,14.36
2023-05-14T11:26:08.139Z,14.55
2023-05-14T11:28:53.134Z,14.91
2023-05-14T11:31:38.165Z,15.53
2023-05-14T11:34:23.078Z,16.18
2023-05-14T11:37:08.178Z,16.22
2023-05-14T11:39:53.125Z,15.92
2023-05-14T11:42:38.208Z,15.80
2023-05-14T11:45:23.257Z,15.51
2023-05-14T11:48:08.393Z,15.50
2023-05-14T11:50:53.408Z,15.51
2023-05-14T11:53:38.448Z,15.14
2023-05-14T11:56:23.348Z,15.09
2023-05-14T11:59:08.303Z,15.16
2023-05-14T12:01:53.418Z,15.30
2023-05-14T12:04:38.446Z,15.41
2023-05-14T12:07:23.338Z,15.37
2023-05-14T12:10:08.487Z,15.47
2023-05-14T12:12:53.428Z,15.41
2023-05-14T12:15:38.388Z,15.04
2023-05-14T12:18:24.951Z,15.35
2023-05-14T12:21:10.427Z,15.52
2023-05-14T12:23:55.392Z,15.66
2023-05-14T12:26:40.281Z,15.62
2023-05-14T12:29:25.299Z,15.54
2023-05-14T12:32:10.187Z,15.41
2023-05-14T12:34:55.170Z,15.70
2023-05-14T12:37:40.292Z,15.61
2023-05-14T12:40:25.423Z,15.28
2023-05-14T12:43:10.713Z,15.12
2023-05-14T12:45:55.701Z,15.21
2023-05-14T12:48:40.898Z,15.24
2023-05-14T12:51:25.848Z,15.34
2023-05-14T12:54:11.076Z,15.45
2023-05-14T12:56:55.964Z,15.22
2023-05-14T12:59:41.108Z,15.44
2023-05-14T13:02:26.142Z,15.66
2023-05-14T13:05:11.197Z,16.19
2023-05-14T13:07:56.280Z,16.72
2023-05-14T13:10:41.208Z,16.95
2023-05-14T13:13:26.166Z,17.19
2023-05-14T13:16:11.086Z,17.24
2023-05-14T13:18:55.958Z,17.46
2023-05-14T13:21:40.737Z,17.57
2023-05-14T13:24:25.980Z,17.30
2023-05-14T13:27:10.841Z,17.21
2023-05-14T13:29:55.775Z,17.09
2023-05-14T13:32:42.241Z,17.25
2023-05-14T13:35:27.170Z,17.45
2023-05-14T13:38:12.146Z,17.75
2023-05-14T13:40:57.116Z,17.74
2023-05-14T13:43:42.192Z,17.38
2023-05-14T13:46:27.376Z,17.75
2023-05-14T13:49:12.322Z,17.31
2023-05-14T13:51:57.383Z,17.16
2023-05-14T13:54:42.357Z,16.98
2023-05-14T13:57:27.393Z,16.93
2023-05-14T14:00:12.348Z,17.06
2023-05-14T14:02:57.458Z,17.28
2023-05-14T14:05:42.590Z,17.69
2023-05-14T14:08:27.397Z,17.63
2023-05-14T14:11:12.608Z,17.64
2023-05-14T14:13:57.533Z,17.68
2023-05-14T14:16:42.645Z,17.18
2023-05-14T14:19:27.565Z,17.30
2023-05-14T14:22:12.615Z,17.20
2023-05-14T14:24:57.623Z,17.10
2023-05-14T14:27:42.573Z,16.66
2023-05-14T14:30:27.539Z,16.84
2023-05-14T14:33:12.586Z,16.62
2023-05-14T14:35:57.653Z,16.87
2023-05-14T14:38:42.517Z,16.81
2023-05-14T14:41:27.632Z,16.90
2023-05-14T14:44:12.580Z,16.43
2023-05-14T14:46:57.659Z,16.23
2023-05-14T14:49:42.560Z,15.84
2023-05-14T14:52:27.652Z,15.85
2023-05-14T14:55:12.543Z,15.99
2023-05-14T14:57:57.582Z,16.09
2023-05-14T15:00:42.639Z,16.16
2023-05-14T15:03:27.742Z,16.10
2023-05-14T15:06:12.784Z,16.10
2023-05-14T15:08:57.748Z,16.34
2023-05-14T15:11:42.979Z,16.19
2023-05-14T15:14:27.811Z,16.07
2023-05-14T15:17:12.790Z,15.47
2023-05-14T15:19:57.756Z,15.63
2023-05-14T15:22:42.666Z,15.90
2023-05-14T15:25:27.713Z,15.93
2023-05-14T15:28:12.590Z,16.05
2023-05-14T15:30:57.591Z,15.97
2023-05-14T15:33:42.522Z,15.81
2023-05-14T15:36:27.503Z,15.65
2023-05-14T15:39:12.531Z,15.36
2023-05-14T15:41:57.615Z,15.39
2023-05-14T15:44:42.735Z,15.37
2023-05-14T15:47:27.623Z,15.63
2023-05-14T15:50:12.746Z,15.73
2023-05-14T15:52:57.690Z,15.77
2023-05-14T15:55:42.766Z,15.49
2023-05-14T15:58:27.623Z,15.19
2023-05-14T16:01:12.608Z,14.98
2023-05-14T16:03:57.732Z,15.00
2023-05-14T16:06:42.494Z,15.05
2023-05-14T16:09:27.651Z,15.18
2023-05-14T16:12:12.603Z,15.32
2023-05-14T16:14:57.811Z,15.33
2023-05-14T16:17:42.796Z,15.52
2023-05-14T16:20:27.893Z,15.84
2023-05-14T16:23:12.674Z,16.17
2023-05-14T16:25:57.611Z,16.48
2023-05-14T16:28:42.688Z,16.79
2023-05-14T16:31:27.590Z,17.02
2023-05-14T16:34:12.639Z,17.23
2023-05-14T16:36:57.592Z,17.35
2023-05-14T16:39:42.692Z,17.50
2023-05-14T16:42:27.593Z,17.53
2023-05-14T16:45:12.493Z,17.58
2023-05-14T16:47:57.467Z,17.60
2023-05-14T16:50:42.421Z,17.59
2023-05-14T16:53:27.371Z,17.45
2023-05-14T16:56:12.248Z,17.39
2023-05-14T16:58:57.484Z,17.14
2023-05-14T17:01:42.467Z,16.85
2023-05-14T17:04:27.646Z,16.67
2023-05-14T17:07:13.626Z,16.44
2023-05-14T17:09:58.778Z,16.30
2023-05-14T17:12:43.823Z,16.30
2023-05-14T17:15:28.921Z,16.25
2023-05-14T17:18:14.048Z,16.13
2023-05-14T17:20:58.940Z,15.67
2023-05-14T17:23:43.973Z,15.50
2023-05-14T17:26:28.789Z,15.02
2023-05-14T17:29:13.838Z,14.83
2023-05-14T17:31:58.695Z,14.70
2023-05-14T17:34:43.638Z,14.87
2023-05-14T17:37:28.566Z,14.73
2023-05-14T17:40:13.482Z,14.34
2023-05-14T17:42:58.594Z,14.39
2023-05-14T17:45:53.864Z,14.19
2023-05-14T17:48:39.518Z,14.22
2023-05-14T17:51:24.442Z,14.36
2023-05-14T17:54:09.523Z,14.40
2023-05-14T17:56:54.514Z,14.31
2023-05-14T17:59:39.756Z,14.40
2023-05-14T18:02:24.722Z,14.39
2023-05-14T18:05:09.691Z,14.14
2023-05-14T18:07:54.677Z,13.97
2023-05-14T18:10:39.766Z,13.94
2023-05-14T18:13:24.570Z,13.89
2023-05-14T18:16:09.537Z,13.88
2023-05-14T18:18:54.720Z,13.92
2023-05-14T18:21:39.635Z,13.97
2023-05-14T18:24:24.662Z,14.01
2023-05-14T18:27:09.532Z,14.05
2023-05-14T18:29:54.754Z,14.08
2023-05-14T18:32:39.829Z,14.15
2023-05-14T18:35:25.130Z,14.14
2023-05-14T18:38:10.028Z,14.14
2023-05-14T18:40:54.981Z,14.10
2023-05-14T18:43:40.151Z,13.94
2023-05-14T18:46:25.125Z,13.86
2023-05-14T18:49:10.095Z,13.73
2023-05-14T18:51:54.957Z,13.69
2023-05-14T18:54:39.943Z,13.66
2023-05-14T18:57:25.020Z,13.65
2023-05-14T19:00:10.050Z,13.61
2023-05-14T19:02:55.112Z,13.56
2023-05-14T19:05:39.883Z,13.51
2023-05-14T19:08:24.965Z,13.44
2023-05-14T19:11:09.940Z,13.40
2023-05-14T19:13:54.981Z,13.32
2023-05-14T19:16:39.793Z,13.31
2023-05-14T19:19:24.699Z,13.34
2023-05-14T19:22:09.783Z,13.36
2023-05-14T19:24:54.676Z,13.44
2023-05-14T19:27:39.766Z,13.48
2023-05-14T19:30:24.658Z,13.46
2023-05-14T19:33:09.767Z,13.54
2023-05-14T19:35:54.630Z,13.51
2023-05-14T19:38:39.814Z,13.54
2023-05-14T19:41:24.801Z,13.49
2023-05-14T19:44:09.756Z,13.36
2023-05-14T19:46:54.985Z,13.27
2023-05-14T19:49:39.779Z,13.12
2023-05-14T19:52:24.882Z,13.06
2023-05-14T19:55:09.908Z,12.97
2023-05-14T19:57:55.048Z,12.91
2023-05-14T20:00:39.876Z,12.83
2023-05-14T20:03:24.861Z,12.81
2023-05-14T20:06:09.917Z,12.74
2023-05-14T20:08:54.954Z,12.70
2023-05-14T20:11:39.917Z,12.61
2023-05-14T20:14:24.930Z,12.61
2023-05-14T20:17:10.202Z,12.66
2023-05-14T20:19:55.018Z,12.62
2023-05-14T20:22:40.097Z,12.61
2023-05-14T20:25:26.680Z,12.53
2023-05-14T20:28:12.940Z,12.42
2023-05-14T20:30:58.094Z,12.27
2023-05-14T20:33:43.019Z,12.24
2023-05-14T20:36:27.978Z,12.26
2023-05-14T20:39:13.029Z,12.29
2023-05-14T20:41:58.125Z,12.35
2023-05-14T20:44:42.983Z,12.34
2023-05-14T20:47:28.070Z,12.37
2023-05-14T20:50:13.097Z,12.35
2023-05-14T20:52:57.999Z,12.33
2023-05-14T20:55:43.124Z,12.21
2023-05-14T20:58:28.101Z,12.17
2023-05-14T21:01:13.019Z,12.16
2023-05-14T21:03:58.233Z,12.08
2023-05-14T21:06:42.906Z,11.96
2023-05-14T21:09:28.117Z,11.85
2023-05-14T21:12:13.084Z,11.77
2023-05-14T21:14:58.111Z,11.72
2023-05-14T21:17:43.065Z,11.64
2023-05-14T21:20:28.107Z,11.54
2023-05-14T21:23:12.675Z,11.52
2023-05-14T21:25:57.690Z,11.53
2023-05-14T21:28:42.680Z,11.54
2023-05-14T21:31:27.722Z,11.51
2023-05-14T21:34:12.713Z,11.47
2023-05-14T21:36:57.631Z,11.43
2023-05-14T21:39:42.690Z,11.37
2023-05-14T21:42:27.740Z,11.31
2023-05-14T21:45:12.633Z,11.22
2023-05-14T21:47:57.584Z,11.14
2023-05-14T21:50:42.586Z,11.08
2023-05-14T21:53:27.586Z,11.09
2023-05-14T21:56:12.628Z,11.10
2023-05-14T21:58:57.685Z,11.13
2023-05-14T22:01:56.172Z,11.17
2023-05-14T22:04:47.131Z,11.15
2023-05-14T22:07:32.196Z,11.14
2023-05-14T22:10:17.228Z,11.21
2023-05-14T22:13:02.216Z,11.20
2023-05-14T22:15:47.399Z,11.25
2023-05-14T22:18:33.206Z,11.23
2023-05-14T22:21:18.246Z,11.27
2023-05-14T22:24:03.386Z,11.26
2023-05-14T22:26:48.501Z,11.27
2023-05-14T22:29:33.530Z,11.31
2023-05-14T22:32:18.739Z,11.35
2023-05-14T22:35:03.712Z,11.41
2023-05-14T22:37:48.777Z,11.48
2023-05-14T22:40:33.749Z,11.53
2023-05-14T22:43:18.888Z,11.59
2023-05-14T22:46:04.003Z,11.66
2023-05-14T22:48:48.878Z,11.67
2023-05-14T22:51:33.848Z,11.71
2023-05-14T22:54:18.691Z,11.78
2023-05-14T22:57:03.734Z,11.76
2023-05-14T22:59:48.613Z,11.80
2023-05-14T23:02:33.714Z,11.77
2023-05-14T23:05:18.637Z,11.78
2023-05-14T23:08:03.690Z,11.72
2023-05-14T23:10:48.759Z,11.80
2023-05-14T23:13:33.763Z,11.75
2023-05-14T23:16:18.867Z,11.66
2023-05-14T23:19:04.008Z,11.43
2023-05-14T23:21:49.047Z,11.09
2023-05-14T23:24:34.036Z,10.83
2023-05-14T23:27:19.016Z,10.68
2023-05-14T23:30:04.001Z,10.62
2023-05-14T23:32:49.024Z,10.61
2023-05-14T23:35:34.103Z,10.64
2023-05-14T23:38:19.108Z,10.59
2023-05-14T23:41:04.153Z,10.67
2023-05-14T23:43:49.020Z,10.67
2023-05-14T23:46:34.145Z,10.75
2023-05-14T23:49:19.077Z,10.78
2023-05-14T23:52:04.072Z,10.75
2023-05-14T23:54:49.271Z,10.80
2023-05-14T23:57:34.199Z,10.83
